createdAt,value
2024-05-09T00:00:31.554Z,90.02
2024-05-09T00:01:26.836Z,89.92
2024-05-09T00:02:26.920Z,89.82
2024-05-09T00:03:26.907Z,90.02
2024-05-09T00:04:26.790Z,90.02
2024-05-09T00:05:26.789Z,90.23
2024-05-09T00:06:26.777Z,90.23
2024-05-09T00:07:26.768Z,90.33
2024-05-09T00:08:26.732Z,90.53
2024-05-09T00:09:26.706Z,90.33
2024-05-09T00:10:35.024Z,90.43
2024-05-09T00:11:26.788Z,90.33
2024-05-09T00:12:26.714Z,90.23
2024-05-09T00:13:26.672Z,90.23
2024-05-09T00:14:26.843Z,90.23
2024-05-09T00:15:26.669Z,90.33
2024-05-09T00:16:26.642Z,90.33
2024-05-09T00:17:26.873Z,90.33
2024-05-09T00:18:26.753Z,90.33
2024-05-09T00:19:26.706Z,90.33
2024-05-09T00:20:35.090Z,90.53
2024-05-09T00:21:26.592Z,90.43
2024-05-09T00:22:26.589Z,90.43
2024-05-09T00:23:26.639Z,90.53
2024-05-09T00:24:26.567Z,90.64
2024-05-09T00:25:26.572Z,90.68
2024-05-09T00:26:26.610Z,90.78
2024-05-09T00:27:26.514Z,90.78
2024-05-09T00:28:26.513Z,90.78
2024-05-09T00:29:26.719Z,90.78
2024-05-09T00:30:33.489Z,91.29
2024-05-09T00:31:26.542Z,91.50
2024-05-09T00:32:26.791Z,91.70
2024-05-09T00:33:26.777Z,92.05
2024-05-09T00:34:26.567Z,92.21
2024-05-09T00:35:26.571Z,92.15
2024-05-09T00:36:26.436Z,92.01
2024-05-09T00:37:26.416Z,92.01
2024-05-09T00:38:26.526Z,92.15
2024-05-09T00:39:26.432Z,92.21
2024-05-09T00:40:35.599Z,92.25
2024-05-09T00:41:26.442Z,92.36
2024-05-09T00:42:26.372Z,92.66
2024-05-09T00:43:26.349Z,92.66
2024-05-09T00:44:26.441Z,92.66
2024-05-09T00:45:26.336Z,92.66
2024-05-09T00:46:26.349Z,92.97
2024-05-09T00:47:26.483Z,92.87
2024-05-09T00:48:26.619Z,92.77
2024-05-09T00:49:26.522Z,92.87
2024-05-09T00:50:34.077Z,92.87
2024-05-09T00:51:26.277Z,92.97
2024-05-09T00:52:26.292Z,92.87
2024-05-09T00:53:26.323Z,92.87
2024-05-09T00:54:28.123Z,92.87
2024-05-09T00:55:26.229Z,92.77
2024-05-09T00:56:26.300Z,92.66
2024-05-09T00:57:26.213Z,92.77
2024-05-09T00:58:26.239Z,92.66
2024-05-09T00:59:26.333Z,92.66
2024-05-09T01:00:31.904Z,92.56
2024-05-09T01:01:26.227Z,92.56
2024-05-09T01:02:26.192Z,92.56
2024-05-09T01:03:26.449Z,92.66
2024-05-09T01:04:26.162Z,92.77
2024-05-09T01:05:26.150Z,92.66
2024-05-09T01:06:26.113Z,92.81
2024-05-09T01:07:26.091Z,92.81
2024-05-09T01:08:26.124Z,92.91
2024-05-09T01:09:26.079Z,93.01
2024-05-09T01:10:33.549Z,92.91
2024-05-09T01:11:26.178Z,92.81
2024-05-09T01:12:26.115Z,92.81
2024-05-09T01:13:26.051Z,92.81
2024-05-09T01:14:26.197Z,92.81
2024-05-09T01:15:26.045Z,92.71
2024-05-09T01:16:26.027Z,92.81
2024-05-09T01:17:26.127Z,92.81
2024-05-09T01:18:26.060Z,92.91
2024-05-09T01:19:26.205Z,92.91
2024-05-09T01:20:37.199Z,93.01
2024-05-09T01:21:26.003Z,93.01
2024-05-09T01:22:25.972Z,93.22
2024-05-09T01:23:25.955Z,93.22
2024-05-09T01:24:25.924Z,93.12
2024-05-09T01:25:25.909Z,93.32
2024-05-09T01:26:26.019Z,93.32
2024-05-09T01:27:25.896Z,93.43
2024-05-09T01:28:25.886Z,93.43
2024-05-09T01:29:26.052Z,93.37
2024-05-09T01:30:33.005Z,93.37
2024-05-09T01:31:25.867Z,93.37
2024-05-09T01:32:26.001Z,93.37
2024-05-09T01:33:26.093Z,93.57
2024-05-09T01:34:25.831Z,93.47
2024-05-09T01:35:25.886Z,93.26
2024-05-09T01:36:25.792Z,93.01
2024-05-09T01:37:25.774Z,92.71
2024-05-09T01:38:25.821Z,92.50
2024-05-09T01:39:25.766Z,92.10
2024-05-09T01:40:36.109Z,91.69
2024-05-09T01:41:25.799Z,91.17
2024-05-09T01:42:25.737Z,91.48
2024-05-09T01:43:25.737Z,91.58
2024-05-09T01:44:25.793Z,91.38
2024-05-09T01:45:25.682Z,91.17
2024-05-09T01:46:25.711Z,91.17
2024-05-09T01:47:25.842Z,91.17
2024-05-09T01:48:25.734Z,91.27
2024-05-09T01:49:25.754Z,91.38
2024-05-09T01:50:37.014Z,91.48
2024-05-09T01:51:25.659Z,91.73
2024-05-09T01:52:25.648Z,91.63
2024-05-09T01:53:25.701Z,91.83
2024-05-09T01:54:25.597Z,91.83
2024-05-09T01:55:25.581Z,91.11
2024-05-09T01:56:25.604Z,91.01
2024-05-09T01:57:25.555Z,91.01
2024-05-09T01:58:25.552Z,90.70
2024-05-09T01:59:25.766Z,90.70
2024-05-09T02:00:34.185Z,90.81
2024-05-09T02:01:25.531Z,91.01
2024-05-09T02:02:25.599Z,91.11
2024-05-09T02:03:25.631Z,91.22
2024-05-09T02:04:25.803Z,91.46
2024-05-09T02:05:25.622Z,91.67
2024-05-09T02:06:25.484Z,91.77
2024-05-09T02:07:25.452Z,91.77
2024-05-09T02:08:25.517Z,91.56
2024-05-09T02:09:25.425Z,91.46
2024-05-09T02:10:31.965Z,91.26
2024-05-09T02:11:25.503Z,91.26
2024-05-09T02:12:25.554Z,91.56
2024-05-09T02:13:25.399Z,91.46
2024-05-09T02:14:25.445Z,91.36
2024-05-09T02:15:25.405Z,91.46
2024-05-09T02:16:25.366Z,91.46
2024-05-09T02:17:25.534Z,91.82
2024-05-09T02:18:25.534Z,91.71
2024-05-09T02:19:25.462Z,91.50
2024-05-09T02:20:33.830Z,91.50
2024-05-09T02:21:25.326Z,91.50
2024-05-09T02:22:25.304Z,91.20
2024-05-09T02:23:25.332Z,91.82
2024-05-09T02:24:25.273Z,91.50
2024-05-09T02:25:25.261Z,91.55
2024-05-09T02:26:25.279Z,91.40
2024-05-09T02:27:25.260Z,91.09
2024-05-09T02:28:25.239Z,91.35
2024-05-09T02:29:25.400Z,91.65
2024-05-09T02:30:35.124Z,91.44
2024-05-09T02:31:25.203Z,91.24
2024-05-09T02:32:25.396Z,91.09
2024-05-09T02:33:25.479Z,90.37
2024-05-09T02:34:25.298Z,90.52
2024-05-09T02:35:25.210Z,89.97
2024-05-09T02:36:25.155Z,89.36
2024-05-09T02:37:25.151Z,89.36
2024-05-09T02:38:25.184Z,89.29
2024-05-09T02:39:25.188Z,89.25
2024-05-09T02:40:33.364Z,89.15
2024-05-09T02:41:25.184Z,88.53
2024-05-09T02:42:25.082Z,88.33
2024-05-09T02:43:25.084Z,88.12
2024-05-09T02:44:25.188Z,87.82
2024-05-09T02:45:25.080Z,87.82
2024-05-09T02:46:25.076Z,87.92
2024-05-09T02:47:25.169Z,87.61
2024-05-09T02:48:25.167Z,86.99
2024-05-09T02:49:25.079Z,86.79
2024-05-09T02:50:33.537Z,86.69
2024-05-09T02:51:25.017Z,86.48
2024-05-09T02:52:24.975Z,86.38
2024-05-09T02:53:24.991Z,86.38
2024-05-09T02:54:24.968Z,86.07
2024-05-09T02:55:24.980Z,86.18
2024-05-09T02:56:24.971Z,86.28
2024-05-09T02:57:24.943Z,86.18
2024-05-09T02:58:24.913Z,86.18
2024-05-09T02:59:25.025Z,85.87
2024-05-09T03:00:34.241Z,85.87
2024-05-09T03:01:24.907Z,85.97
2024-05-09T03:02:24.971Z,85.87
2024-05-09T03:03:25.127Z,85.66
2024-05-09T03:04:24.891Z,85.77
2024-05-09T03:05:24.969Z,85.66
2024-05-09T03:06:24.838Z,85.36
2024-05-09T03:07:24.825Z,85.15
2024-05-09T03:08:24.819Z,84.95
2024-05-09T03:09:24.810Z,85.25
2024-05-09T03:10:28.631Z,85.05
2024-05-09T03:11:24.831Z,85.36
2024-05-09T03:12:24.779Z,85.36
2024-05-09T03:13:24.731Z,85.25
2024-05-09T03:14:24.935Z,85.15
2024-05-09T03:15:24.684Z,85.25
2024-05-09T03:16:24.680Z,85.25
2024-05-09T03:17:24.909Z,85.25
2024-05-09T03:18:24.771Z,85.15
2024-05-09T03:19:24.778Z,85.46
2024-05-09T03:20:32.279Z,85.36
2024-05-09T03:21:24.631Z,85.36
2024-05-09T03:22:24.692Z,85.15
2024-05-09T03:23:24.640Z,85.15
2024-05-09T03:24:24.606Z,85.15
2024-05-09T03:25:24.609Z,85.36
2024-05-09T03:26:24.601Z,85.46
2024-05-09T03:27:24.536Z,85.66
2024-05-09T03:28:24.524Z,85.87
2024-05-09T03:29:24.682Z,86.18
2024-05-09T03:30:31.188Z,85.97
2024-05-09T03:31:24.519Z,85.97
2024-05-09T03:32:24.631Z,86.07
2024-05-09T03:33:24.741Z,85.97
2024-05-09T03:34:24.512Z,85.87
2024-05-09T03:35:24.578Z,85.77
2024-05-09T03:36:24.489Z,85.87
2024-05-09T03:37:24.435Z,86.01
2024-05-09T03:38:24.446Z,86.11
2024-05-09T03:39:24.422Z,86.42
2024-05-09T03:40:28.917Z,86.52
2024-05-09T03:41:24.486Z,86.42
2024-05-09T03:42:24.424Z,86.42
2024-05-09T03:43:24.664Z,86.11
2024-05-09T03:44:24.383Z,86.22
2024-05-09T03:45:24.363Z,86.11
2024-05-09T03:46:24.355Z,85.91
2024-05-09T03:47:24.448Z,86.01
2024-05-09T03:48:24.546Z,86.01
2024-05-09T03:49:24.753Z,86.01
2024-05-09T03:50:30.162Z,86.11
2024-05-09T03:51:24.304Z,86.36
2024-05-09T03:52:24.274Z,86.57
2024-05-09T03:53:24.352Z,86.77
2024-05-09T03:54:24.304Z,86.98
2024-05-09T03:55:24.296Z,86.77
2024-05-09T03:56:24.326Z,86.57
2024-05-09T03:57:24.315Z,86.57
2024-05-09T03:58:24.216Z,86.77
2024-05-09T03:59:24.378Z,87.08
2024-05-09T04:00:31.369Z,87.08
2024-05-09T04:01:24.308Z,87.18
2024-05-09T04:02:24.253Z,86.98
2024-05-09T04:03:24.484Z,87.18
2024-05-09T04:04:24.175Z,87.28
2024-05-09T04:05:24.170Z,86.98
2024-05-09T04:06:24.200Z,86.98
2024-05-09T04:07:24.141Z,87.08
2024-05-09T04:08:24.263Z,87.08
2024-05-09T04:09:24.112Z,86.77
2024-05-09T04:10:31.027Z,86.77
2024-05-09T04:11:24.195Z,86.98
2024-05-09T04:12:24.142Z,86.87
2024-05-09T04:13:24.060Z,86.98
2024-05-09T04:14:24.094Z,87.18
2024-05-09T04:15:24.050Z,86.98
2024-05-09T04:16:24.054Z,86.87
2024-05-09T04:17:24.142Z,86.66
2024-05-09T04:18:24.169Z,86.66
2024-05-09T04:19:24.166Z,86.87
2024-05-09T04:20:33.449Z,86.36
2024-05-09T04:21:23.970Z,86.05
2024-05-09T04:22:23.960Z,85.74
2024-05-09T04:23:24.093Z,85.74
2024-05-09T04:24:23.985Z,85.95
2024-05-09T04:25:23.938Z,85.85
2024-05-09T04:26:23.948Z,85.85
2024-05-09T04:27:23.901Z,85.80
2024-05-09T04:28:23.932Z,85.80
2024-05-09T04:29:23.939Z,86.01
2024-05-09T04:30:34.303Z,86.22
2024-05-09T04:31:23.883Z,86.11
2024-05-09T04:32:24.137Z,85.71
2024-05-09T04:33:24.151Z,85.50
2024-05-09T04:34:23.947Z,85.39
2024-05-09T04:35:23.991Z,85.19
2024-05-09T04:36:23.861Z,84.99
2024-05-09T04:37:23.836Z,84.78
2024-05-09T04:38:23.910Z,84.78
2024-05-09T04:39:23.795Z,84.53
2024-05-09T04:40:28.485Z,84.33
2024-05-09T04:41:23.833Z,84.33
2024-05-09T04:42:23.743Z,84.33
2024-05-09T04:43:23.742Z,84.23
2024-05-09T04:44:23.786Z,84.03
2024-05-09T04:45:23.716Z,83.82
2024-05-09T04:46:23.706Z,83.72
2024-05-09T04:47:23.866Z,83.68
2024-05-09T04:48:23.841Z,83.47
2024-05-09T04:49:23.929Z,83.37
2024-05-09T04:50:32.720Z,83.78
2024-05-09T04:51:23.669Z,83.58
2024-05-09T04:52:23.651Z,83.58
2024-05-09T04:53:23.745Z,83.78
2024-05-09T04:54:33.648Z,83.78
2024-05-09T04:55:23.612Z,83.98
2024-05-09T04:56:23.637Z,83.64
2024-05-09T04:57:23.606Z,83.54
2024-05-09T04:58:23.612Z,83.44
2024-05-09T04:59:23.629Z,82.82
2024-05-09T05:00:32.383Z,83.13
2024-05-09T05:01:23.612Z,83.23
2024-05-09T05:02:23.659Z,83.44
2024-05-09T05:03:23.671Z,83.54
2024-05-09T05:04:23.518Z,83.54
2024-05-09T05:05:23.563Z,83.54
2024-05-09T05:06:23.493Z,83.23
2024-05-09T05:07:23.477Z,83.64
2024-05-09T05:08:23.541Z,83.44
2024-05-09T05:09:23.478Z,83.09
2024-05-09T05:10:32.915Z,83.19
2024-05-09T05:11:23.583Z,83.19
2024-05-09T05:12:23.571Z,82.57
2024-05-09T05:13:24.259Z,82.27
2024-05-09T05:14:23.440Z,82.13
2024-05-09T05:15:23.391Z,81.62
2024-05-09T05:16:23.387Z,81.31
2024-05-09T05:17:23.530Z,81.62
2024-05-09T05:18:23.493Z,81.01
2024-05-09T05:19:23.449Z,80.80
2024-05-09T05:20:30.920Z,81.01
2024-05-09T05:21:23.396Z,81.07
2024-05-09T05:22:23.343Z,80.97
2024-05-09T05:23:23.772Z,80.66
2024-05-09T05:24:23.321Z,80.46
2024-05-09T05:25:23.299Z,80.35
2024-05-09T05:26:23.423Z,80.42
2024-05-09T05:27:23.287Z,80.32
2024-05-09T05:28:23.335Z,80.21
2024-05-09T05:29:23.331Z,80.21
2024-05-09T05:30:29.008Z,80.01
2024-05-09T05:31:23.252Z,79.91
2024-05-09T05:32:23.409Z,80.11
2024-05-09T05:33:23.723Z,79.91
2024-05-09T05:34:23.194Z,79.50
2024-05-09T05:35:23.346Z,79.91
2024-05-09T05:36:23.166Z,78.99
2024-05-09T05:37:23.168Z,79.70
2024-05-09T05:38:26.277Z,79.46
2024-05-09T05:39:23.159Z,80.11
2024-05-09T05:40:32.155Z,79.50
2024-05-09T05:41:23.229Z,79.80
2024-05-09T05:42:23.161Z,80.11
2024-05-09T05:43:23.135Z,80.11
2024-05-09T05:44:23.119Z,80.62
2024-05-09T05:45:23.073Z,80.32
2024-05-09T05:46:23.085Z,80.62
2024-05-09T05:47:23.205Z,80.42
2024-05-09T05:48:23.354Z,80.93
2024-05-09T05:49:23.233Z,80.48
2024-05-09T05:50:28.044Z,80.48
2024-05-09T05:51:23.074Z,79.87
2024-05-09T05:52:23.033Z,79.57
2024-05-09T05:53:23.032Z,79.77
2024-05-09T05:54:23.010Z,80.69
2024-05-09T05:55:22.990Z,80.28
2024-05-09T05:56:23.013Z,79.12
2024-05-09T05:57:22.969Z,79.52
2024-05-09T05:58:22.933Z,78.98
2024-05-09T05:59:23.009Z,79.49
2024-05-09T06:00:29.826Z,78.88
2024-05-09T06:01:22.953Z,78.37
2024-05-09T06:02:23.019Z,78.02
2024-05-09T06:03:23.024Z,77.82
2024-05-09T06:04:22.877Z,77.21
2024-05-09T06:05:23.840Z,77.41
2024-05-09T06:06:22.844Z,77.31
2024-05-09T06:07:22.863Z,77.21
2024-05-09T06:08:23.718Z,77.89
2024-05-09T06:09:22.823Z,77.37
2024-05-09T06:10:29.603Z,77.68
2024-05-09T06:11:22.890Z,77.58
2024-05-09T06:12:22.942Z,75.81
2024-05-09T06:13:22.778Z,75.67
2024-05-09T06:14:22.786Z,75.88
2024-05-09T06:15:22.790Z,75.92
2024-05-09T06:16:22.737Z,76.73
2024-05-09T06:17:22.916Z,75.71
2024-05-09T06:18:23.220Z,75.51
2024-05-09T06:19:22.824Z,75.71
2024-05-09T06:20:31.590Z,76.12
2024-05-09T06:21:22.808Z,76.53
2024-05-09T06:22:22.669Z,76.01
2024-05-09T06:23:22.823Z,74.76
2024-05-09T06:24:22.655Z,75.27
2024-05-09T06:25:22.654Z,75.06
2024-05-09T06:26:22.690Z,75.78
2024-05-09T06:27:22.636Z,75.37
2024-05-09T06:28:22.607Z,74.86
2024-05-09T06:29:22.635Z,74.45
2024-05-09T06:30:30.056Z,75.47
2024-05-09T06:31:22.577Z,74.76
2024-05-09T06:32:22.776Z,74.86
2024-05-09T06:33:22.800Z,75.02
2024-05-09T06:34:22.848Z,74.82
2024-05-09T06:35:22.599Z,74.11
2024-05-09T06:36:22.564Z,75.13
2024-05-09T06:37:22.512Z,74.11
2024-05-09T06:38:22.576Z,73.30
2024-05-09T06:39:22.512Z,73.57
2024-05-09T06:40:25.900Z,73.26
2024-05-09T06:41:22.531Z,73.36
2024-05-09T06:42:22.466Z,73.26
2024-05-09T06:43:22.452Z,73.77
2024-05-09T06:44:22.616Z,74.69
2024-05-09T06:45:22.462Z,73.97
2024-05-09T06:46:22.417Z,72.55
2024-05-09T06:47:22.519Z,72.45
2024-05-09T06:48:22.975Z,72.96
2024-05-09T06:49:22.542Z,74.15
2024-05-09T06:50:24.478Z,74.65
2024-05-09T06:51:22.432Z,74.04
2024-05-09T06:52:22.412Z,74.45
2024-05-09T06:53:22.425Z,74.65
2024-05-09T06:54:22.445Z,72.92
2024-05-09T06:55:22.373Z,73.80
2024-05-09T06:56:22.395Z,73.19
2024-05-09T06:57:22.330Z,72.89
2024-05-09T06:58:22.321Z,72.17
2024-05-09T06:59:22.569Z,72.48
2024-05-09T07:00:30.205Z,73.80
2024-05-09T07:01:22.528Z,72.65
2024-05-09T07:02:22.487Z,73.06
2024-05-09T07:03:22.360Z,72.96
2024-05-09T07:04:22.369Z,72.34
2024-05-09T07:05:22.367Z,72.55
2024-05-09T07:06:22.207Z,72.25
2024-05-09T07:07:22.197Z,72.25
2024-05-09T07:08:22.348Z,73.53
2024-05-09T07:09:22.184Z,72.21
2024-05-09T07:10:28.875Z,72.31
2024-05-09T07:11:22.268Z,72.17
2024-05-09T07:12:22.242Z,72.08
2024-05-09T07:13:22.137Z,71.97
2024-05-09T07:14:22.177Z,73.09
2024-05-09T07:15:22.135Z,72.58
2024-05-09T07:16:22.120Z,71.47
2024-05-09T07:17:22.190Z,72.38
2024-05-09T07:18:22.261Z,71.47
2024-05-09T07:19:22.180Z,71.53
2024-05-09T07:20:31.623Z,70.83
2024-05-09T07:21:22.091Z,70.32
2024-05-09T07:22:22.054Z,70.62
2024-05-09T07:23:22.095Z,70.11
2024-05-09T07:24:22.008Z,70.92
2024-05-09T07:25:21.995Z,70.42
2024-05-09T07:26:22.042Z,69.71
2024-05-09T07:27:22.008Z,70.48
2024-05-09T07:28:22.024Z,69.88
2024-05-09T07:29:22.034Z,72.41
2024-05-09T07:30:27.596Z,70.28
2024-05-09T07:31:21.938Z,70.59
2024-05-09T07:32:22.140Z,71.30
2024-05-09T07:33:23.604Z,69.24
2024-05-09T07:34:22.046Z,68.83
2024-05-09T07:35:21.964Z,68.96
2024-05-09T07:36:21.898Z,68.87
2024-05-09T07:37:21.884Z,69.64
2024-05-09T07:38:22.012Z,69.44
2024-05-09T07:39:21.843Z,70.25
2024-05-09T07:40:31.561Z,69.03
2024-05-09T07:41:21.907Z,69.24
2024-05-09T07:42:21.814Z,69.24
2024-05-09T07:43:21.816Z,68.93
2024-05-09T07:44:21.888Z,69.34
2024-05-09T07:45:40.598Z,70.15
2024-05-09T07:48:56.508Z,69.24
2024-05-09T07:52:22.638Z,70.21
2024-05-09T07:53:42.105Z,69.51
2024-05-09T07:53:53.399Z,68.46
2024-05-09T07:54:44.997Z,68.46
2024-05-09T07:55:45.080Z,68.87
2024-05-09T07:56:44.997Z,69.57
2024-05-09T07:57:44.947Z,70.36
2024-05-09T07:58:44.837Z,69.74
2024-05-09T07:59:44.830Z,68.94
2024-05-09T08:00:45.040Z,68.50
2024-05-09T08:01:45.071Z,67.99
2024-05-09T08:02:44.851Z,68.10
2024-05-09T08:03:45.072Z,69.01
2024-05-09T08:04:44.954Z,66.67
2024-05-09T08:05:44.848Z,66.58
2024-05-09T08:06:44.810Z,67.39
2024-05-09T08:07:44.763Z,67.08
2024-05-09T08:08:44.779Z,68.19
2024-05-09T08:09:44.791Z,70.22
2024-05-09T08:10:44.864Z,69.51
2024-05-09T08:11:44.852Z,69.89
2024-05-09T08:12:44.675Z,68.47
2024-05-09T08:13:44.684Z,69.45
2024-05-09T08:14:44.719Z,67.69
2024-05-09T08:15:44.934Z,69.71
2024-05-09T08:16:44.643Z,66.18
2024-05-09T08:17:44.702Z,65.47
2024-05-09T08:18:44.774Z,67.69
2024-05-09T08:19:44.728Z,70.09
2024-05-09T08:20:44.653Z,69.08
2024-05-09T08:21:44.659Z,71.00
2024-05-09T08:22:44.597Z,68.30
2024-05-09T08:23:44.580Z,71.84
2024-05-09T08:24:44.628Z,67.90
2024-05-09T08:25:44.558Z,69.58
2024-05-09T08:26:44.575Z,72.31
2024-05-09T08:27:44.553Z,70.89
2024-05-09T08:28:44.582Z,63.49
2024-05-09T08:29:44.691Z,64.43
2024-05-09T08:30:44.795Z,66.15
2024-05-09T08:31:44.689Z,67.86
2024-05-09T08:32:44.609Z,67.76
2024-05-09T08:33:44.703Z,68.04
2024-05-09T08:34:44.752Z,66.42
2024-05-09T08:35:44.504Z,65.01
2024-05-09T08:36:44.498Z,64.78
2024-05-09T08:37:44.513Z,63.46
2024-05-09T08:38:44.457Z,64.98
2024-05-09T08:39:44.578Z,64.87
2024-05-09T08:40:44.641Z,62.73
2024-05-09T08:41:44.413Z,63.73
2024-05-09T08:42:44.533Z,62.32
2024-05-09T08:43:44.433Z,61.99
2024-05-09T08:44:44.375Z,62.19
2024-05-09T08:45:45.438Z,61.79
2024-05-09T08:46:44.350Z,61.59
2024-05-09T08:47:44.434Z,62.66
2024-05-09T08:48:44.582Z,62.57
2024-05-09T08:49:44.396Z,60.55
2024-05-09T08:50:45.347Z,62.87
2024-05-09T08:51:44.376Z,65.39
2024-05-09T08:52:44.296Z,61.76
2024-05-09T08:53:44.273Z,57.93
2024-05-09T08:54:44.366Z,57.83
2024-05-09T08:55:44.673Z,56.35
2024-05-09T08:56:44.264Z,57.76
2024-05-09T08:57:44.258Z,59.27
2024-05-09T08:58:44.250Z,59.47
2024-05-09T08:59:44.210Z,63.17
2024-05-09T09:00:44.703Z,62.74
2024-05-09T09:01:44.415Z,61.00
2024-05-09T09:02:44.645Z,57.07
2024-05-09T09:03:44.322Z,57.85
2024-05-09T09:04:44.335Z,57.85
2024-05-09T09:05:44.226Z,58.35
2024-05-09T09:06:44.436Z,55.33
2024-05-09T09:07:44.156Z,54.13
2024-05-09T09:08:44.129Z,54.93
2024-05-09T09:09:44.345Z,55.16
2024-05-09T09:10:44.237Z,54.55
2024-05-09T09:11:44.193Z,53.95
2024-05-09T09:12:44.236Z,54.28
2024-05-09T09:13:44.096Z,54.96
2024-05-09T09:14:44.145Z,56.87
2024-05-09T09:15:44.093Z,56.67
2024-05-09T09:16:44.093Z,57.98
2024-05-09T09:17:44.206Z,55.76
2024-05-09T09:18:44.332Z,56.27
2024-05-09T09:19:44.154Z,54.66
2024-05-09T09:20:44.227Z,55.06
2024-05-09T09:21:44.067Z,54.48
2024-05-09T09:22:44.024Z,54.08
2024-05-09T09:23:44.022Z,54.58
2024-05-09T09:24:44.047Z,53.67
2024-05-09T09:25:43.993Z,56.67
2024-05-09T09:26:43.970Z,54.66
2024-05-09T09:27:44.022Z,55.83
2024-05-09T09:28:43.939Z,55.23
2024-05-09T09:29:43.970Z,54.71
2024-05-09T09:30:44.035Z,52.77
2024-05-09T09:31:43.978Z,50.76
2024-05-09T09:32:43.992Z,48.95
2024-05-09T09:33:44.187Z,50.66
2024-05-09T09:34:43.996Z,53.50
2024-05-09T09:35:43.959Z,54.91
2024-05-09T09:36:44.030Z,51.68
2024-05-09T09:37:43.903Z,49.18
2024-05-09T09:38:43.934Z,50.10
2024-05-09T09:39:43.954Z,50.48
2024-05-09T09:40:48.306Z,50.18
2024-05-09T09:41:43.956Z,51.49
2024-05-09T09:42:43.935Z,51.21
2024-05-09T09:43:43.954Z,48.90
2024-05-09T09:44:47.771Z,50.60
2024-05-09T09:45:43.993Z,52.01
2024-05-09T09:46:43.799Z,52.51
2024-05-09T09:47:43.911Z,52.22
2024-05-09T09:48:43.910Z,57.24
2024-05-09T09:49:43.888Z,53.63
2024-05-09T09:50:43.766Z,54.83
2024-05-09T09:51:43.980Z,58.86
2024-05-09T09:52:43.746Z,55.13
2024-05-09T09:53:43.964Z,53.34
2024-05-09T09:54:43.987Z,50.73
2024-05-09T09:55:43.837Z,49.42
2024-05-09T09:56:43.765Z,50.76
2024-05-09T09:57:43.869Z,52.26
2024-05-09T09:58:43.669Z,48.94
2024-05-09T09:59:43.801Z,52.37
2024-05-09T10:00:43.922Z,53.75
2024-05-09T10:01:43.827Z,50.40
2024-05-09T10:02:43.826Z,50.10
2024-05-09T10:03:43.991Z,52.22
2024-05-09T10:04:44.021Z,53.02
2024-05-09T10:05:46.332Z,51.51
2024-05-09T10:06:43.650Z,51.59
2024-05-09T10:07:43.594Z,49.05
2024-05-09T10:08:43.589Z,49.43
2024-05-09T10:09:43.633Z,47.42
2024-05-09T10:10:43.947Z,50.05
2024-05-09T10:11:49.155Z,49.35
2024-05-09T10:12:43.583Z,51.49
2024-05-09T10:13:43.595Z,53.20
2024-05-09T10:14:43.576Z,53.22
2024-05-09T10:15:43.617Z,51.11
2024-05-09T10:16:43.572Z,54.53
2024-05-09T10:17:43.641Z,55.81
2024-05-09T10:18:43.859Z,52.26
2024-05-09T10:19:43.646Z,51.79
2024-05-09T10:20:43.921Z,52.09
2024-05-09T10:21:43.590Z,54.43
2024-05-09T10:22:43.574Z,53.70
2024-05-09T10:23:43.589Z,51.86
2024-05-09T10:24:43.536Z,52.34
2024-05-09T10:25:43.920Z,51.34
2024-05-09T10:26:43.512Z,51.51
2024-05-09T10:27:43.599Z,51.84
2024-05-09T10:28:43.525Z,50.96
2024-05-09T10:29:43.436Z,50.16
2024-05-09T10:30:44.474Z,49.63
2024-05-09T10:31:43.717Z,53.57
2024-05-09T10:32:43.490Z,50.76
2024-05-09T10:33:43.555Z,50.98
2024-05-09T10:34:43.512Z,53.50
2024-05-09T10:35:43.457Z,53.42
2024-05-09T10:36:43.585Z,52.22
2024-05-09T10:37:43.355Z,53.34
2024-05-09T10:38:43.479Z,53.14
2024-05-09T10:39:43.674Z,54.55
2024-05-09T10:40:43.456Z,53.05
2024-05-09T10:41:43.308Z,52.92
2024-05-09T10:42:43.587Z,52.31
2024-05-09T10:43:43.343Z,52.29
2024-05-09T10:44:43.273Z,52.69
2024-05-09T10:45:43.417Z,51.86
2024-05-09T10:46:43.500Z,51.99
2024-05-09T10:47:43.396Z,49.36
2024-05-09T10:48:44.268Z,51.17
2024-05-09T10:49:43.361Z,51.14
2024-05-09T10:50:43.285Z,49.93
2024-05-09T10:51:43.348Z,49.21
2024-05-09T10:52:43.250Z,50.24
2024-05-09T10:53:43.826Z,50.31
2024-05-09T10:54:43.223Z,50.81
2024-05-09T10:55:43.212Z,49.49
2024-05-09T10:56:43.236Z,50.13
2024-05-09T10:57:43.291Z,51.44
2024-05-09T10:58:43.204Z,50.86
2024-05-09T10:59:43.147Z,50.74
2024-05-09T11:00:43.283Z,50.92
2024-05-09T11:01:43.303Z,49.16
2024-05-09T11:02:43.368Z,48.02
2024-05-09T11:03:43.504Z,47.74
2024-05-09T11:04:43.229Z,48.21
2024-05-09T11:05:43.488Z,48.78
2024-05-09T11:06:43.134Z,50.59
2024-05-09T11:07:43.084Z,51.79
2024-05-09T11:08:43.082Z,52.19
2024-05-09T11:09:43.159Z,51.49
2024-05-09T11:10:43.356Z,51.49
2024-05-09T11:11:43.155Z,52.32
2024-05-09T11:12:43.137Z,53.30
2024-05-09T11:13:43.046Z,51.09
2024-05-09T11:14:43.145Z,50.79
2024-05-09T11:15:43.085Z,51.62
2024-05-09T11:16:43.071Z,49.31
2024-05-09T11:17:43.198Z,50.44
2024-05-09T11:18:43.331Z,47.96
2024-05-09T11:19:43.015Z,48.21
2024-05-09T11:20:43.021Z,49.63
2024-05-09T11:21:43.070Z,49.54
2024-05-09T11:22:42.987Z,50.51
2024-05-09T11:23:43.000Z,51.12
2024-05-09T11:24:43.072Z,49.87
2024-05-09T11:25:42.922Z,46.50
2024-05-09T11:26:42.912Z,49.43
2024-05-09T11:27:42.939Z,48.55
2024-05-09T11:28:42.941Z,49.86
2024-05-09T11:29:42.895Z,49.26
2024-05-09T11:30:43.046Z,49.98
2024-05-09T11:31:42.972Z,52.67
2024-05-09T11:32:43.073Z,49.05
2024-05-09T11:33:43.126Z,49.36
2024-05-09T11:34:43.022Z,50.48
2024-05-09T11:35:42.865Z,52.39
2024-05-09T11:36:42.901Z,48.71
2024-05-09T11:37:42.875Z,49.63
2024-05-09T11:38:43.039Z,49.56
2024-05-09T11:39:42.917Z,51.56
2024-05-09T11:40:42.864Z,50.76
2024-05-09T11:41:42.906Z,49.02
2024-05-09T11:42:42.818Z,46.57
2024-05-09T11:43:42.785Z,46.80
2024-05-09T11:44:42.815Z,46.34
2024-05-09T11:45:42.854Z,48.86
2024-05-09T11:46:42.734Z,47.69
2024-05-09T11:47:42.925Z,48.51
2024-05-09T11:48:42.910Z,48.61
2024-05-09T11:49:42.771Z,48.91
2024-05-09T11:50:42.773Z,50.42
2024-05-09T11:51:42.755Z,48.41
2024-05-09T11:52:42.729Z,48.31
2024-05-09T11:53:42.682Z,47.19
2024-05-09T11:54:42.739Z,48.26
2024-05-09T11:55:42.669Z,46.18
2024-05-09T11:56:42.658Z,47.50
2024-05-09T11:57:42.661Z,48.44
2024-05-09T11:58:42.693Z,44.03
2024-05-09T11:59:42.622Z,42.68
2024-05-09T12:00:42.643Z,44.21
2024-05-09T12:01:42.664Z,45.74
2024-05-09T12:02:42.614Z,47.06
2024-05-09T12:03:42.750Z,47.00
2024-05-09T12:04:42.779Z,50.79
2024-05-09T12:05:42.817Z,45.92
2024-05-09T12:06:42.653Z,46.87
2024-05-09T12:07:42.574Z,45.00
2024-05-09T12:08:42.571Z,45.74
2024-05-09T12:09:42.574Z,46.06
2024-05-09T12:10:42.667Z,47.28
2024-05-09T12:11:42.568Z,47.50
2024-05-09T12:12:42.574Z,47.61
2024-05-09T12:13:42.518Z,48.11
2024-05-09T12:14:42.544Z,48.79
2024-05-09T12:15:42.550Z,48.49
2024-05-09T12:16:42.660Z,49.08
2024-05-09T12:17:42.585Z,47.94
2024-05-09T12:18:42.577Z,47.66
2024-05-09T12:19:42.536Z,48.69
2024-05-09T12:20:42.475Z,48.71
2024-05-09T12:21:42.619Z,47.81
2024-05-09T12:22:42.456Z,47.58
2024-05-09T12:23:42.568Z,47.88
2024-05-09T12:24:42.440Z,48.69
2024-05-09T12:25:42.406Z,47.99
2024-05-09T12:26:42.464Z,48.31
2024-05-09T12:27:42.447Z,48.53
2024-05-09T12:28:42.376Z,47.93
2024-05-09T12:29:42.372Z,47.93
2024-05-09T12:30:42.452Z,47.93
2024-05-09T12:31:42.355Z,48.23
2024-05-09T12:32:42.427Z,46.93
2024-05-09T12:33:42.378Z,47.45
2024-05-09T12:34:42.377Z,47.35
2024-05-09T12:35:44.326Z,47.43
2024-05-09T12:36:42.364Z,48.51
2024-05-09T12:37:42.289Z,47.73
2024-05-09T12:38:42.292Z,45.83
2024-05-09T12:39:42.298Z,47.55
2024-05-09T12:40:42.475Z,47.65
2024-05-09T12:41:42.257Z,47.85
2024-05-09T12:42:42.311Z,47.03
2024-05-09T12:43:42.249Z,45.58
2024-05-09T12:44:42.254Z,44.88
2024-05-09T12:45:42.268Z,45.18
2024-05-09T12:46:42.234Z,44.48
2024-05-09T12:47:42.322Z,47.26
2024-05-09T12:48:42.360Z,43.24
2024-05-09T12:49:42.308Z,44.84
2024-05-09T12:50:42.341Z,45.14
2024-05-09T12:51:42.216Z,44.46
2024-05-09T12:52:42.168Z,45.38
2024-05-09T12:53:42.178Z,46.38
2024-05-09T12:54:42.182Z,46.36
2024-05-09T12:55:48.752Z,46.38
2024-05-09T12:56:42.146Z,46.70